Aeroporto :
LOGIN :

Iscrizione | Disclaimer

   EN    FR    IT 

 










Sommario :    VFR   VFR Marginale   IFR   IFR Intensivo   IFR Molto Intensivo
Visibilità : 
Base nubi : 
>= 8 km
>= 3000ft
5 / 8 km
1000 / 3000 ft
1500m / 5 km
500 / 1000 ft
800 / 1500m
200 / 500 ft
< 800m
< 200 ft
Simboli :   Temporali  Nebbia  Neve Forte  Precipitazioni Forti  Vento > 20 kt
SIGMETs :   Varie  Temporali  Ghiacco  Turbolenza  Onda orograficha  Ceneri Vulcaniche






- Altitudine del aeroporto : 158 ft
- Codice IATA : QAR


EHDL - Deelen Airbase

ULTIMO METAR :
  • 210025Z AUTO 26009KT 230V360 9999 FEW034 BKN038 BKN043 05/01 Q1017 BLU

METARs OBSOLETI :
  • 202355Z AUTO 26010KT 210V330 9999 SCT046 05/01 Q1016 BLU
  • 202325Z AUTO 27011KT 210V340 9999 FEW031 05/01 Q1015 BLU
  • 202255Z AUTO 27010KT 220V330 9999 NCD 04/02 Q1015 BLU
  • 202225Z AUTO 26009KT 220V320 9999 NCD 04/02 Q1014 BLU
  • 202155Z AUTO 28010KT 220V340 9999 FEW015CB SCT033 OVC100 05/02 Q1013 BLU
  • 202136Z AUTO 29014G25KT 230V360 9999 FEW015CB SCT027 BKN050 05/02 Q1013 BLU

TAF TAF EHDL
Valido dal 20 a 18 ore il 21 a 06 ore UTC


201744Z 2018/2106 21018G30KT 9999 SCT015 BKN020
TEMPO 2018/2020 23025G40KT 2500 RA SHRA SCT006 BKN010 SCT018CB
BECMG 2019/2021 29015G25KT SCT025
PROB30
TEMPO 2020/2022 29020G35KT 4000 SHRA TSRA SCT012 SCT020CB
BECMG 2100/2102 24010KT



MetMap, La meteo Aeronautica in un colpo d'occhio ! - Copyright ORBIFLY Dicembre 2007 - Disclaimer

ORBIFLY MET'MAP TEAM :

Programmazione e sviluppo : Alexandra Zaïnal
Concezione : Baudouin d'Aumeries
Aiuto per la programmazione : Marc-Olivier Méhu
Supporto tecnico e logistico : Manuel Goepfert
Aiuto per la traduzione : Arnaldo La Scala

Contatto : metmap@orbifly.com




FONTI E CREDITI :

   NOAA